createdAt,value
2023-02-05T00:01:15.700Z,17.43
2023-02-05T00:03:44.871Z,15.90
2023-02-05T00:06:14.044Z,16.63
2023-02-05T00:08:43.213Z,15.23
2023-02-05T00:11:12.357Z,17.63
2023-02-05T00:13:43.936Z,18.97
2023-02-05T00:16:14.882Z,18.63
2023-02-05T00:18:44.481Z,18.80
2023-02-05T00:21:14.447Z,18.87
2023-02-05T00:23:43.894Z,18.83
2023-02-05T00:26:14.895Z,17.93
2023-02-05T00:28:48.162Z,18.27
2023-02-05T00:31:19.998Z,18.20
2023-02-05T00:33:51.118Z,16.83
2023-02-05T00:36:23.354Z,15.53
2023-02-05T00:38:53.235Z,15.40
2023-02-05T00:41:22.518Z,15.30
2023-02-05T00:43:52.832Z,15.20
2023-02-05T00:46:21.768Z,14.70
2023-02-05T00:48:50.943Z,15.03
2023-02-05T00:51:19.973Z,15.43
2023-02-05T00:53:48.902Z,14.40
2023-02-05T00:56:17.836Z,15.03
2023-02-05T00:58:48.975Z,15.20
2023-02-05T01:01:19.404Z,14.93
2023-02-05T01:03:49.720Z,15.10
2023-02-05T01:06:18.912Z,14.77
2023-02-05T01:08:48.102Z,15.17
2023-02-05T01:11:17.362Z,15.33
2023-02-05T01:13:46.480Z,16.10
2023-02-05T01:16:15.440Z,16.73
2023-02-05T01:18:46.455Z,16.67
2023-02-05T01:21:15.858Z,16.90
2023-02-05T01:23:45.604Z,16.37
2023-02-05T01:26:14.628Z,15.43
2023-02-05T01:28:45.198Z,14.40
2023-02-05T01:31:14.394Z,13.97
2023-02-05T01:33:43.594Z,14.17
2023-02-05T01:36:14.336Z,14.03
2023-02-05T01:38:43.213Z,13.27
2023-02-05T01:41:13.881Z,14.30
2023-02-05T01:43:43.075Z,13.33
2023-02-05T01:46:21.867Z,12.83
2023-02-05T01:48:56.152Z,13.17
2023-02-05T01:51:30.258Z,13.40
2023-02-05T01:53:59.196Z,13.20
2023-02-05T01:56:32.927Z,13.40
2023-02-05T01:59:09.134Z,12.63
2023-02-05T02:01:41.053Z,12.57
2023-02-05T02:04:12.652Z,12.70
2023-02-05T02:06:43.141Z,12.93
2023-02-05T02:09:13.405Z,12.60
2023-02-05T02:11:44.905Z,12.83
2023-02-05T02:14:15.040Z,12.50
2023-02-05T02:16:44.034Z,12.17
2023-02-05T02:19:19.590Z,11.57
2023-02-05T02:22:25.605Z,12.57
2023-02-05T02:25:16.262Z,12.67
2023-02-05T02:27:53.840Z,12.80
2023-02-05T02:30:27.551Z,13.17
2023-02-05T02:33:06.503Z,12.40
2023-02-05T02:35:45.420Z,13.50
2023-02-05T02:38:23.221Z,13.20
2023-02-05T02:40:55.966Z,12.73
2023-02-05T02:43:35.474Z,13.30
2023-02-05T02:46:09.326Z,13.03
2023-02-05T02:48:42.669Z,13.53
2023-02-05T02:51:13.348Z,12.70
2023-02-05T02:53:47.541Z,12.93
2023-02-05T02:56:20.533Z,13.03
2023-02-05T02:58:55.781Z,12.73
2023-02-05T03:01:29.147Z,12.93
2023-02-05T03:04:03.430Z,12.80
2023-02-05T03:06:34.429Z,12.87
2023-02-05T03:09:09.974Z,12.63
2023-02-05T03:11:39.413Z,13.00
2023-02-05T03:14:10.088Z,12.77
2023-02-05T03:16:41.378Z,13.10
2023-02-05T03:19:10.798Z,13.10
2023-02-05T03:21:43.882Z,12.80
2023-02-05T03:24:13.541Z,11.90
2023-02-05T03:26:43.217Z,12.43
2023-02-05T03:29:28.079Z,11.73
2023-02-05T03:32:07.718Z,12.30
2023-02-05T03:34:46.318Z,11.43
2023-02-05T03:37:25.729Z,12.17
2023-02-05T03:40:03.584Z,11.70
2023-02-05T03:42:44.317Z,12.53
2023-02-05T03:45:36.350Z,12.00
2023-02-05T03:48:16.031Z,12.80
2023-02-05T03:50:53.499Z,12.57
2023-02-05T03:53:29.928Z,12.60
2023-02-05T03:56:05.242Z,12.23
2023-02-05T03:58:38.021Z,12.37
2023-02-05T04:01:12.751Z,12.63
2023-02-05T04:03:43.813Z,12.27
2023-02-05T04:06:14.158Z,12.10
2023-02-05T04:08:44.400Z,11.87
2023-02-05T04:11:14.253Z,12.63
2023-02-05T04:13:45.316Z,13.23
2023-02-05T04:16:16.015Z,11.67
2023-02-05T04:18:45.426Z,12.20
2023-02-05T04:21:14.435Z,13.80
2023-02-05T04:23:44.496Z,12.30
2023-02-05T04:26:14.378Z,12.73
2023-02-05T04:28:54.747Z,12.37
2023-02-05T04:31:25.714Z,12.30
2023-02-05T04:33:54.772Z,12.40
2023-02-05T04:36:24.282Z,12.13
2023-02-05T04:38:53.687Z,11.73
2023-02-05T04:41:24.161Z,11.43
2023-02-05T04:43:53.099Z,12.57
2023-02-05T04:46:22.076Z,12.13
2023-02-05T04:48:52.545Z,12.47
2023-02-05T04:51:21.870Z,11.87
2023-02-05T04:53:50.871Z,12.67
2023-02-05T04:56:19.936Z,13.40
2023-02-05T04:58:48.855Z,13.13
2023-02-05T05:01:20.363Z,13.53
2023-02-05T05:03:49.830Z,12.93
2023-02-05T05:06:20.448Z,13.00
2023-02-05T05:08:49.632Z,12.60
2023-02-05T05:11:20.615Z,12.77
2023-02-05T05:13:51.900Z,12.30
2023-02-05T05:16:21.016Z,12.50
2023-02-05T05:18:53.121Z,12.87
2023-02-05T05:21:23.822Z,12.60
2023-02-05T05:23:52.919Z,12.40
2023-02-05T05:26:22.415Z,12.37
2023-02-05T05:28:55.182Z,11.63
2023-02-05T05:31:25.464Z,12.10
2023-02-05T05:33:54.624Z,12.33
2023-02-05T05:36:25.139Z,11.93
2023-02-05T05:38:54.221Z,12.17
2023-02-05T05:41:42.765Z,12.30
2023-02-05T05:44:12.230Z,12.83
2023-02-05T05:46:41.410Z,13.40
2023-02-05T05:49:10.526Z,13.43
2023-02-05T05:51:40.900Z,14.20
2023-02-05T05:54:09.839Z,14.03
2023-02-05T05:56:38.985Z,14.07
2023-02-05T05:59:08.185Z,13.33
2023-02-05T06:01:37.312Z,13.40
2023-02-05T06:04:06.500Z,13.53
2023-02-05T06:06:35.570Z,12.80
2023-02-05T06:09:06.658Z,12.83
2023-02-05T06:11:35.950Z,12.67
2023-02-05T06:14:05.590Z,12.80
2023-02-05T06:16:34.909Z,12.60
2023-02-05T06:19:04.503Z,12.80
2023-02-05T06:21:33.693Z,12.37
2023-02-05T06:24:02.905Z,12.00
2023-02-05T06:26:33.642Z,12.40
2023-02-05T06:29:03.747Z,13.13
2023-02-05T06:31:33.060Z,12.50
2023-02-05T06:34:02.224Z,12.37
2023-02-05T06:36:31.250Z,12.50
2023-02-05T06:39:00.297Z,12.47
2023-02-05T06:41:29.337Z,12.40
2023-02-05T06:43:59.648Z,12.13
2023-02-05T06:46:28.625Z,12.43
2023-02-05T06:48:57.757Z,12.50
2023-02-05T06:51:27.035Z,12.33
2023-02-05T06:53:57.328Z,12.23
2023-02-05T06:56:26.586Z,11.97
2023-02-05T06:58:56.098Z,12.80
2023-02-05T07:01:26.630Z,12.33
2023-02-05T07:03:56.600Z,12.40
2023-02-05T07:06:26.268Z,11.93
2023-02-05T07:08:55.645Z,12.00
2023-02-05T07:11:25.284Z,12.07
2023-02-05T07:13:54.638Z,12.37
2023-02-05T07:16:23.647Z,12.00
2023-02-05T07:18:54.024Z,11.77
2023-02-05T07:21:22.863Z,11.97
2023-02-05T07:23:51.942Z,12.57
2023-02-05T07:26:20.986Z,11.60
2023-02-05T07:28:50.068Z,12.00
2023-02-05T07:31:20.436Z,11.63
2023-02-05T07:33:49.808Z,11.90
2023-02-05T07:36:20.279Z,11.80
2023-02-05T07:38:49.467Z,11.97
2023-02-05T07:41:18.828Z,11.73
2023-02-05T07:43:51.322Z,11.97
2023-02-05T07:46:21.334Z,11.63
2023-02-05T07:48:50.390Z,12.03
2023-02-05T07:51:22.288Z,11.27
2023-02-05T07:53:52.064Z,11.83
2023-02-05T07:56:21.719Z,11.53
2023-02-05T07:58:50.964Z,11.80
2023-02-05T08:01:20.066Z,12.10
2023-02-05T08:03:49.292Z,12.23
2023-02-05T08:06:19.668Z,12.00
2023-02-05T08:08:48.660Z,12.77
2023-02-05T08:11:19.301Z,11.93
2023-02-05T08:13:48.545Z,11.70
2023-02-05T08:16:18.120Z,11.63
2023-02-05T08:18:50.184Z,12.00
2023-02-05T08:21:21.784Z,12.40
2023-02-05T08:23:51.129Z,12.33
2023-02-05T08:26:20.245Z,12.23
2023-02-05T08:28:49.195Z,11.30
2023-02-05T08:31:20.127Z,11.67
2023-02-05T08:33:50.881Z,11.53
2023-02-05T08:36:22.040Z,11.77
2023-02-05T08:38:50.953Z,11.20
2023-02-05T08:41:20.052Z,11.20
2023-02-05T08:43:51.002Z,11.20
2023-02-05T08:46:21.908Z,10.90
2023-02-05T08:48:50.995Z,11.17
2023-02-05T08:51:23.617Z,11.27
2023-02-05T08:53:53.476Z,10.93
2023-02-05T08:56:22.826Z,11.23
2023-02-05T08:58:52.003Z,12.37
2023-02-05T09:01:21.643Z,11.37
2023-02-05T09:03:50.699Z,11.53
2023-02-05T09:06:21.154Z,11.37
2023-02-05T09:08:50.068Z,11.60
2023-02-05T09:11:22.450Z,10.90
2023-02-05T09:13:51.501Z,11.43
2023-02-05T09:16:20.820Z,11.10
2023-02-05T09:18:50.101Z,10.60
2023-02-05T09:21:19.185Z,10.77
2023-02-05T09:23:49.749Z,10.13
2023-02-05T09:26:19.224Z,10.93
2023-02-05T09:28:48.270Z,10.27
2023-02-05T09:31:19.868Z,10.57
2023-02-05T09:33:49.253Z,10.03
2023-02-05T09:36:20.129Z,9.87
2023-02-05T09:39:01.952Z,9.80
2023-02-05T09:41:44.344Z,9.43
2023-02-05T09:44:20.538Z,9.80
2023-02-05T09:46:59.464Z,9.57
2023-02-05T09:49:31.488Z,9.13
2023-02-05T09:52:03.765Z,9.07
2023-02-05T09:54:37.692Z,9.50
2023-02-05T09:57:12.818Z,9.27
2023-02-05T09:59:45.912Z,9.60
2023-02-05T10:02:24.714Z,9.87
2023-02-05T10:04:55.132Z,9.90
2023-02-05T10:07:35.909Z,10.20
2023-02-05T10:10:24.789Z,10.13
2023-02-05T10:13:15.811Z,9.50
2023-02-05T10:16:23.169Z,9.90
2023-02-05T10:19:09.350Z,9.70
2023-02-05T10:21:55.674Z,10.37
2023-02-05T10:24:46.500Z,10.60
2023-02-05T10:27:21.720Z,10.37
2023-02-05T10:30:03.348Z,10.13
2023-02-05T10:32:43.068Z,10.80
2023-02-05T10:35:24.791Z,10.73
2023-02-05T10:37:57.699Z,11.00
2023-02-05T10:40:30.669Z,10.57
2023-02-05T10:43:15.152Z,10.57
2023-02-05T10:45:45.174Z,10.57
2023-02-05T10:48:32.850Z,10.57
2023-02-05T10:51:04.454Z,10.63
2023-02-05T10:53:36.366Z,10.93
2023-02-05T10:56:06.353Z,11.23
2023-02-05T10:58:47.719Z,11.00
2023-02-05T11:01:19.709Z,11.20
2023-02-05T11:03:55.519Z,10.77
2023-02-05T11:06:27.454Z,11.30
2023-02-05T11:08:57.414Z,10.27
2023-02-05T11:11:29.095Z,10.27
2023-02-05T11:14:05.154Z,10.90
2023-02-05T11:16:41.946Z,10.60
2023-02-05T11:19:21.045Z,10.80
2023-02-05T11:21:53.713Z,10.20
2023-02-05T11:24:31.717Z,9.97
2023-02-05T11:27:38.503Z,10.17
2023-02-05T11:33:28.354Z,10.70
2023-02-05T11:36:00.100Z,10.67
2023-02-05T11:38:44.822Z,10.80
2023-02-05T11:41:16.711Z,10.77
2023-02-05T11:43:50.499Z,10.57
2023-02-05T11:46:23.420Z,10.37
2023-02-05T11:48:58.425Z,10.63
2023-02-05T11:51:44.628Z,10.00
2023-02-05T11:54:21.607Z,10.03
2023-02-05T11:57:06.175Z,10.03
2023-02-05T11:59:36.608Z,10.50
2023-02-05T12:02:32.775Z,11.23
2023-02-05T12:05:13.621Z,11.00
2023-02-05T12:07:48.817Z,9.70
2023-02-05T12:10:19.860Z,10.23
2023-02-05T12:13:01.855Z,10.43
2023-02-05T12:15:38.112Z,10.27
2023-02-05T12:18:22.035Z,13.93
2023-02-05T12:21:01.144Z,10.73
2023-02-05T12:23:41.666Z,10.27
2023-02-05T12:26:27.580Z,9.90
2023-02-05T12:29:18.323Z,10.43
2023-02-05T12:32:04.695Z,10.23
2023-02-05T12:34:44.002Z,10.13
2023-02-05T12:37:29.613Z,10.07
2023-02-05T12:40:09.753Z,10.97
2023-02-05T12:42:46.188Z,10.87
2023-02-05T12:45:31.533Z,10.53
2023-02-05T12:48:24.532Z,10.07
2023-02-05T12:51:08.713Z,10.47
2023-02-05T12:54:00.043Z,10.40
2023-02-05T12:56:50.542Z,10.50
2023-02-05T12:59:29.983Z,10.80
2023-02-05T13:02:05.266Z,10.40
2023-02-05T13:04:38.764Z,11.10
2023-02-05T13:07:14.554Z,10.27
2023-02-05T13:09:49.311Z,10.00
2023-02-05T13:12:23.789Z,10.30
2023-02-05T13:15:01.621Z,12.37
2023-02-05T13:17:32.822Z,11.17
2023-02-05T13:20:04.888Z,15.13
2023-02-05T13:23:03.042Z,13.87
2023-02-05T13:25:55.190Z,11.63
2023-02-05T13:28:41.630Z,9.93
2023-02-05T13:31:23.315Z,10.70
2023-02-05T13:33:54.786Z,10.57
2023-02-05T13:36:57.046Z,10.40
2023-02-05T13:39:46.822Z,10.63
2023-02-05T13:42:45.229Z,11.00
2023-02-05T13:45:38.260Z,10.83
2023-02-05T13:48:41.021Z,11.20
2023-02-05T13:51:29.645Z,11.37
2023-02-05T13:54:16.770Z,11.00
2023-02-05T13:56:55.514Z,10.60
2023-02-05T13:59:34.656Z,10.93
2023-02-05T14:02:04.181Z,18.23
2023-02-05T14:04:40.645Z,12.00
2023-02-05T14:07:17.109Z,11.40
2023-02-05T14:09:56.342Z,11.37
2023-02-05T14:12:29.222Z,10.93
2023-02-05T14:15:24.227Z,10.60
2023-02-05T14:17:56.402Z,10.97
2023-02-05T14:20:40.624Z,10.97
2023-02-05T14:23:37.829Z,11.27
2023-02-05T14:26:11.431Z,11.33
2023-02-05T14:28:53.152Z,11.27
2023-02-05T14:31:48.532Z,11.73
2023-02-05T14:34:48.776Z,12.10
2023-02-05T14:37:38.947Z,11.40
2023-02-05T14:40:28.596Z,12.00
2023-02-05T14:43:09.643Z,11.10
2023-02-05T14:45:47.389Z,11.50
2023-02-05T14:48:23.901Z,11.97
2023-02-05T14:51:07.525Z,11.37
2023-02-05T14:53:38.198Z,11.43
2023-02-05T14:56:07.706Z,12.40
2023-02-05T14:58:40.776Z,13.03
2023-02-05T15:01:46.813Z,12.63
2023-02-05T15:04:31.022Z,12.70
2023-02-05T15:07:08.008Z,12.23
2023-02-05T15:09:43.122Z,12.53
2023-02-05T15:12:57.413Z,12.03
2023-02-05T15:15:32.476Z,13.27
2023-02-05T15:18:25.234Z,12.43
2023-02-05T15:20:57.755Z,13.20
2023-02-05T15:23:36.345Z,13.17
2023-02-05T15:26:07.963Z,12.90
2023-02-05T15:28:40.658Z,13.20
2023-02-05T15:31:22.054Z,13.47
2023-02-05T15:33:59.046Z,12.27
2023-02-05T15:36:42.968Z,12.03
2023-02-05T15:39:26.585Z,11.47
2023-02-05T15:41:59.450Z,11.77
2023-02-05T15:44:30.741Z,12.30
2023-02-05T15:47:02.716Z,12.00
2023-02-05T15:49:37.810Z,11.83
2023-02-05T15:52:08.935Z,11.67
2023-02-05T15:54:38.954Z,12.03
2023-02-05T15:57:14.201Z,11.93
2023-02-05T15:59:43.706Z,12.50
2023-02-05T16:02:19.132Z,12.70
2023-02-05T16:04:55.285Z,12.10
2023-02-05T16:07:28.016Z,12.40
2023-02-05T16:09:59.767Z,12.30
2023-02-05T16:12:31.540Z,12.60
2023-02-05T16:15:02.996Z,12.53
2023-02-05T16:17:40.686Z,12.40
2023-02-05T16:20:19.876Z,12.37
2023-02-05T16:22:55.323Z,12.80
2023-02-05T16:25:37.444Z,12.87
2023-02-05T16:28:15.043Z,13.00
2023-02-05T16:30:46.768Z,12.63
2023-02-05T16:33:26.064Z,12.77
2023-02-05T16:35:56.874Z,12.87
2023-02-05T16:38:28.301Z,12.80
2023-02-05T16:41:00.030Z,13.63
2023-02-05T16:43:32.708Z,13.90
2023-02-05T16:46:28.696Z,12.77
2023-02-05T16:49:00.027Z,13.47
2023-02-05T16:51:32.946Z,13.57
2023-02-05T16:54:22.358Z,14.17
2023-02-05T16:56:56.841Z,13.80
2023-02-05T16:59:29.441Z,14.10
2023-02-05T17:01:59.512Z,14.90
2023-02-05T17:04:31.652Z,14.87
2023-02-05T17:07:02.990Z,14.70
2023-02-05T17:09:36.013Z,15.03
2023-02-05T17:12:40.808Z,15.00
2023-02-05T17:15:36.417Z,14.70
2023-02-05T17:18:35.804Z,15.93
2023-02-05T17:21:25.135Z,17.10
2023-02-05T17:23:56.775Z,16.37
2023-02-05T17:26:30.853Z,17.30
2023-02-05T17:29:02.397Z,16.90
2023-02-05T17:31:34.516Z,15.20
2023-02-05T17:34:03.794Z,15.87
2023-02-05T17:36:33.354Z,16.23
2023-02-05T17:39:02.971Z,16.83
2023-02-05T17:41:55.468Z,17.20
2023-02-05T17:44:24.780Z,18.27
2023-02-05T17:46:54.887Z,18.90
2023-02-05T17:49:24.017Z,18.17
2023-02-05T17:51:53.304Z,18.47
2023-02-05T17:54:25.355Z,18.90
2023-02-05T17:56:58.213Z,20.27
2023-02-05T17:59:28.337Z,21.23
2023-02-05T18:01:58.390Z,20.90
2023-02-05T18:04:27.677Z,21.50
2023-02-05T18:06:57.694Z,21.73
2023-02-05T18:09:27.102Z,19.20
2023-02-05T18:12:00.140Z,18.97
2023-02-05T18:14:29.270Z,18.70
2023-02-05T18:16:59.275Z,19.30
2023-02-05T18:19:29.400Z,18.50
2023-02-05T18:21:58.405Z,17.63
2023-02-05T18:24:28.087Z,17.33
2023-02-05T18:27:00.005Z,17.63
2023-02-05T18:29:29.597Z,17.77
2023-02-05T18:32:04.913Z,17.40
2023-02-05T18:34:34.384Z,17.03
2023-02-05T18:37:03.633Z,16.93
2023-02-05T18:39:33.017Z,17.63
2023-02-05T18:42:03.423Z,17.60
2023-02-05T18:44:32.801Z,17.10
2023-02-05T18:47:02.592Z,17.93
2023-02-05T18:49:31.765Z,16.57
2023-02-05T18:52:02.910Z,17.23
2023-02-05T18:54:32.036Z,16.90
2023-02-05T18:57:00.844Z,17.10
2023-02-05T18:59:31.119Z,16.80
2023-02-05T19:02:00.279Z,15.23
2023-02-05T19:04:33.042Z,16.33
2023-02-05T19:07:03.782Z,15.90
2023-02-05T19:09:34.999Z,16.07
2023-02-05T19:12:04.643Z,16.13
2023-02-05T19:14:36.451Z,15.43
2023-02-05T19:17:07.807Z,16.07
2023-02-05T19:19:37.564Z,16.37
2023-02-05T19:27:49.870Z,17.67
2023-02-05T19:30:20.879Z,16.70
2023-02-05T19:32:50.396Z,16.63
2023-02-05T19:41:59.305Z,17.80
2023-02-05T19:45:56.854Z,17.73
2023-02-05T19:48:32.258Z,18.77
2023-02-05T19:51:28.799Z,22.13
2023-02-05T19:54:18.145Z,20.67
2023-02-05T19:56:51.428Z,20.07
2023-02-05T19:59:21.160Z,19.47
2023-02-05T20:01:50.297Z,19.50
2023-02-05T20:04:24.213Z,19.70
2023-02-05T20:06:56.840Z,18.63
2023-02-05T20:09:28.214Z,20.00
2023-02-05T20:11:57.167Z,20.87
2023-02-05T20:14:26.273Z,20.57
2023-02-05T20:16:55.362Z,21.87
2023-02-05T20:19:25.938Z,22.10
2023-02-05T20:21:54.850Z,22.77
2023-02-05T20:24:24.854Z,22.87
2023-02-05T20:26:59.460Z,22.97
2023-02-05T20:29:51.318Z,23.30
2023-02-05T20:32:24.028Z,20.93
2023-02-05T20:34:54.730Z,20.87
2023-02-05T20:37:24.127Z,20.63
2023-02-05T20:39:53.198Z,19.93
2023-02-05T20:42:22.336Z,20.27
2023-02-05T20:44:51.561Z,22.03
2023-02-05T20:47:20.620Z,21.40
2023-02-05T20:49:49.486Z,20.03
2023-02-05T20:52:19.669Z,21.17
2023-02-05T20:54:48.646Z,23.90
2023-02-05T20:57:19.165Z,24.47
2023-02-05T20:59:49.851Z,24.10
2023-02-05T21:02:20.940Z,25.33
2023-02-05T21:04:52.459Z,24.57
2023-02-05T21:07:29.359Z,25.33
2023-02-05T21:10:01.914Z,27.07
2023-02-05T21:12:32.500Z,25.90
2023-02-05T21:15:01.698Z,24.70
2023-02-05T21:17:31.061Z,24.83
2023-02-05T21:20:00.498Z,26.20
2023-02-05T21:22:30.986Z,23.93
2023-02-05T21:25:00.145Z,23.83
2023-02-05T21:27:29.883Z,23.90
2023-02-05T21:30:00.167Z,23.37
2023-02-05T21:32:30.710Z,24.27
2023-02-05T21:35:00.313Z,22.20
2023-02-05T21:37:31.080Z,22.77
2023-02-05T21:40:08.924Z,22.40
2023-02-05T21:42:38.901Z,23.23
2023-02-05T21:45:10.052Z,23.53
2023-02-05T21:47:39.264Z,22.93
2023-02-05T21:50:09.454Z,23.13
2023-02-05T21:52:40.094Z,22.87
2023-02-05T21:55:09.803Z,22.33
2023-02-05T21:57:38.990Z,23.27
2023-02-05T22:00:10.453Z,22.90
2023-02-05T22:02:42.818Z,21.37
2023-02-05T22:05:12.302Z,24.63
2023-02-05T22:07:43.501Z,23.53
2023-02-05T22:10:12.910Z,21.87
2023-02-05T22:12:41.980Z,23.73
2023-02-05T22:15:13.888Z,24.00
2023-02-05T22:17:43.503Z,22.93
2023-02-05T22:20:13.845Z,22.37
2023-02-05T22:22:44.457Z,22.67
2023-02-05T22:25:13.609Z,22.70
2023-02-05T22:27:43.190Z,21.97
2023-02-05T22:30:13.367Z,22.37
2023-02-05T22:32:42.560Z,24.17
2023-02-05T22:35:11.945Z,21.57
2023-02-05T22:37:41.092Z,21.63
2023-02-05T22:40:13.131Z,21.50
2023-02-05T22:42:44.358Z,22.93
2023-02-05T22:45:13.936Z,21.40
2023-02-05T22:47:43.205Z,22.47
2023-02-05T22:50:12.537Z,20.70
2023-02-05T22:52:43.634Z,24.37
2023-02-05T22:55:14.505Z,20.87
2023-02-05T22:57:43.751Z,19.60
2023-02-05T23:00:13.848Z,19.63
2023-02-05T23:02:43.458Z,20.63
2023-02-05T23:05:12.676Z,20.50
2023-02-05T23:07:41.866Z,20.57
2023-02-05T23:10:11.425Z,20.03
2023-02-05T23:12:42.448Z,19.90
2023-02-05T23:15:11.787Z,19.80
2023-02-05T23:17:41.065Z,19.30
2023-02-05T23:20:12.201Z,19.57
2023-02-05T23:22:41.257Z,19.30
2023-02-05T23:25:10.294Z,20.40
2023-02-05T23:27:41.026Z,19.27
2023-02-05T23:30:13.242Z,20.10
2023-02-05T23:32:42.704Z,19.20
2023-02-05T23:35:11.997Z,19.40
2023-02-05T23:37:40.824Z,20.37
2023-02-05T23:40:10.847Z,20.47
2023-02-05T23:42:39.984Z,23.30
2023-02-05T23:45:11.084Z,28.47
2023-02-05T23:47:41.197Z,22.30
2023-02-05T23:50:10.814Z,22.37
2023-02-05T23:52:40.232Z,22.47
2023-02-05T23:55:10.879Z,23.27
2023-02-05T23:57:40.143Z,23.27
